Time;durP1;ratioP1;P1;durP2;ratioP2;P2;SDS_P1;SDS_P2;PMS_P1;PMS_P2;Temp;Humidity;BMP_temperature;BMP_pressure;BME280_temperature;BME280_humidity;BME280_pressure;Samples;Min_cycle;Max_cycle;Signal;HPM_P1;HPM_P2
2023/01/04 00:01:14;;;;;;;12.27;11.10;;;1.10;99.90;;;1.82;100.00;99232.06;5198887;28;20701;-62
2023/01/04 00:03:47;;;;;;;12.30;11.10;;;1.10;99.90;;;1.83;100.00;99226.28;5199864;28;20749;-61
2023/01/04 00:06:21;;;;;;;11.40;10.30;;;1.10;99.90;;;1.76;100.00;99218.03;5196767;28;20265;-63
2023/01/04 00:08:54;;;;;;;13.73;12.33;;;1.10;99.90;;;1.76;100.00;99215.50;5198155;28;21012;-62
2023/01/04 00:11:29;;;;;;;11.77;10.73;;;1.20;99.90;;;1.78;100.00;99216.59;5197746;28;20244;-63
2023/01/04 00:14:02;;;;;;;11.03;9.93;;;1.20;99.90;;;1.88;100.00;99220.13;5196965;28;20656;-60
2023/01/04 00:16:35;;;;;;;10.13;9.23;;;1.20;99.90;;;1.89;100.00;99224.44;5199459;28;20229;-60
2023/01/04 00:19:10;;;;;;;10.60;9.60;;;1.20;99.90;;;1.91;100.00;99228.03;5199301;28;20207;-62
2023/01/04 00:21:44;;;;;;;11.07;10.07;;;1.10;99.90;;;1.87;100.00;99236.00;5197982;28;20642;-62
2023/01/04 00:24:17;;;;;;;9.80;8.90;;;1.10;99.90;;;1.82;100.00;99235.47;5201143;28;20204;-62
2023/01/04 00:26:51;;;;;;;9.80;8.90;;;1.10;99.90;;;1.82;100.00;99227.03;5199212;28;20309;-63
2023/01/04 00:29:24;;;;;;;9.93;9.13;;;1.10;99.90;;;1.84;100.00;99215.50;5197565;28;20289;-61
2023/01/04 00:31:57;;;;;;;9.07;8.33;;;1.00;99.90;;;1.76;100.00;99210.47;5201242;28;20325;-60
2023/01/04 00:34:30;;;;;;;8.83;7.93;;;0.90;99.90;;;1.65;100.00;99188.22;5198130;28;20229;-60
2023/01/04 00:37:03;;;;;;;9.23;8.40;;;0.90;99.90;;;1.60;100.00;99184.25;5201984;28;20307;-63
2023/01/04 00:39:36;;;;;;;9.40;8.60;;;0.90;99.90;;;1.57;100.00;99169.72;5199236;28;20225;-63
2023/01/04 00:42:11;;;;;;;10.17;9.17;;;0.90;99.90;;;1.57;100.00;99168.81;5197478;28;20755;-63
2023/01/04 00:44:44;;;;;;;10.00;9.10;;;0.90;99.90;;;1.49;100.00;99164.56;5198670;28;20209;-61
2023/01/04 00:47:17;;;;;;;10.10;9.30;;;0.80;99.90;;;1.47;100.00;99159.31;5199141;28;20310;-62
2023/01/04 00:49:50;;;;;;;10.07;9.27;;;0.80;99.90;;;1.47;100.00;99166.00;5196037;28;20240;-62
2023/01/04 00:52:23;;;;;;;11.37;10.37;;;0.80;99.90;;;1.47;100.00;99166.00;5198053;28;20230;-59
2023/01/04 00:54:56;;;;;;;11.37;10.17;;;0.80;99.90;;;1.49;100.00;99159.50;5198765;28;20208;-62
2023/01/04 00:57:30;;;;;;;10.67;9.53;;;0.80;99.90;;;1.47;100.00;99155.91;5197031;28;20204;-62
2023/01/04 01:00:05;;;;;;;9.67;8.87;;;0.70;99.90;;;1.45;100.00;99158.25;5200153;28;20243;-62
2023/01/04 01:02:38;;;;;;;8.77;7.90;;;0.60;99.90;;;1.32;100.00;99150.94;5197222;28;20250;-60
2023/01/04 01:05:12;;;;;;;9.73;8.73;;;0.60;99.90;;;1.30;100.00;99154.00;5198156;28;20208;-62
2023/01/04 01:07:45;;;;;;;8.53;7.83;;;0.60;99.90;;;1.21;100.00;99151.34;5200284;28;20225;-62
2023/01/04 01:10:18;;;;;;;8.87;8.17;;;0.50;99.90;;;1.17;100.00;99148.28;5196539;28;20207;-59
2023/01/04 01:12:53;;;;;;;8.97;8.27;;;0.50;99.90;;;1.20;100.00;99158.69;5196430;28;20272;-63
2023/01/04 01:15:26;;;;;;;9.13;8.33;;;0.50;99.90;;;1.21;100.00;99163.94;5198841;28;20200;-62
2023/01/04 01:17:59;;;;;;;8.00;7.40;;;0.50;99.90;;;1.22;100.00;99153.13;5196941;28;20200;-62
2023/01/04 01:20:32;;;;;;;8.70;7.87;;;0.50;99.90;;;1.26;100.00;99152.78;5199361;28;20736;-62
2023/01/04 01:23:05;;;;;;;8.07;7.47;;;0.50;99.90;;;1.12;100.00;99165.41;5196980;28;20236;-59
2023/01/04 01:25:38;;;;;;;7.70;7.00;;;0.40;99.90;;;0.90;100.00;99157.00;5198532;28;20628;-62
2023/01/04 01:28:13;;;;;;;7.30;6.77;;;0.30;99.90;;;0.86;100.00;99159.91;5196829;28;20306;-60
2023/01/04 01:30:46;;;;;;;7.20;6.63;;;0.20;99.90;;;0.88;100.00;99169.41;5196890;28;20222;-61
2023/01/04 01:33:19;;;;;;;7.63;7.03;;;0.20;99.90;;;0.88;100.00;99174.44;5200600;28;20667;-63
2023/01/04 01:35:52;;;;;;;7.37;6.73;;;0.20;99.90;;;0.84;100.00;99163.84;5199821;28;20291;-61
2023/01/04 01:38:25;;;;;;;6.63;6.20;;;0.20;99.90;;;0.76;100.00;99167.09;5196055;28;20612;-62
2023/01/04 01:40:58;;;;;;;7.97;7.17;;;0.20;99.90;;;0.81;100.00;99161.88;5197977;28;20715;-60
2023/01/04 01:43:54;;;;;;;7.43;6.83;;;0.20;99.90;;;0.73;100.00;99167.63;5198424;28;20674;-63
2023/01/04 01:46:31;;;;;;;8.17;7.57;;;0.10;99.90;;;0.60;100.00;99160.31;5196144;28;20210;-61
2023/01/04 01:49:11;;;;;;;8.47;7.60;;;0.00;99.90;;;0.51;100.00;99174.28;5195678;28;20217;-62
2023/01/04 01:51:44;;;;;;;8.10;7.50;;;0.00;99.90;;;0.59;100.00;99172.69;5192386;28;20747;-62
2023/01/04 01:54:25;;;;;;;8.40;7.70;;;0.10;99.90;;;0.68;100.00;99183.81;5197199;28;20244;-62
2023/01/04 01:57:02;;;;;;;8.30;7.70;;;0.10;99.90;;;0.64;100.00;99180.06;5193221;28;20205;-62
2023/01/04 01:59:40;;;;;;;8.40;7.70;;;0.10;99.90;;;0.73;100.00;99182.75;5198423;28;20707;-60
2023/01/04 02:02:13;;;;;;;9.07;8.20;;;0.10;99.90;;;0.83;100.00;99174.63;5197616;28;20328;-61
2023/01/04 02:04:50;;;;;;;8.93;8.20;;;0.20;99.90;;;0.83;100.00;99175.53;5198851;28;20210;-62
2023/01/04 02:07:26;;;;;;;9.37;7.40;;;0.20;99.90;;;0.85;100.00;99169.03;5197770;28;20214;-60
2023/01/04 02:10:00;;;;;;;8.10;7.43;;;0.20;99.90;;;0.81;100.00;99171.94;5198119;28;20289;-59
2023/01/04 02:12:33;;;;;;;7.87;7.27;;;0.20;99.90;;;0.87;100.00;99167.63;5194764;28;20697;-60
2023/01/04 02:15:09;;;;;;;8.93;8.13;;;0.20;99.90;;;0.86;100.00;99155.75;5198760;28;20394;-58
2023/01/04 02:17:49;;;;;;;7.97;7.37;;;0.20;99.90;;;0.86;100.00;99154.88;5198598;28;20613;-60
2023/01/04 02:20:33;;;;;;;8.57;7.73;;;0.20;99.90;;;0.86;100.00;99153.25;5196159;28;20200;-61
2023/01/04 02:24:00;;;;;;;7.70;7.10;;;0.20;99.90;;;0.90;100.00;99152.88;5199112;28;20323;-61
2023/01/04 02:27:11;;;;;;;6.83;6.23;;;0.20;99.90;;;0.85;100.00;99143.88;5195393;28;20235;-57
2023/01/04 02:30:25;;;;;;;6.80;6.10;;;0.20;99.90;;;0.79;100.00;99142.28;5199710;28;20209;-62
2023/01/04 02:33:13;;;;;;;7.03;6.33;;;0.10;99.90;;;0.80;100.00;99150.03;5196910;28;20663;-60
2023/01/04 02:35:59;;;;;;;8.73;7.83;;;0.10;99.90;;;0.67;100.00;99147.69;5198260;28;20301;-62
2023/01/04 02:38:46;;;;;;;7.50;6.83;;;0.10;99.90;;;0.67;100.00;99142.66;5197110;28;20342;-61
2023/01/04 02:41:28;;;;;;;7.60;7.00;;;0.10;99.90;;;0.72;100.00;99148.25;5195274;28;20309;-62
2023/01/04 02:47:06;;;;;;;6.97;6.37;;;0.10;99.90;;;0.73;100.00;99137.44;5199447;28;20217;-60
2023/01/04 02:52:37;;;;;;;7.50;6.80;;;0.10;99.90;;;0.74;100.00;99124.13;5199503;28;20236;-60
2023/01/04 02:55:10;;;;;;;7.87;7.17;;;0.10;99.90;;;0.71;100.00;99128.81;5201495;28;20220;-61
2023/01/04 02:57:54;;;;;;;7.00;6.47;;;0.00;99.90;;;0.66;100.00;99124.91;5198971;28;20198;-63
2023/01/04 03:06:50;;;;;;;6.63;6.13;;;-0.10;99.90;;;0.55;100.00;99126.16;5198115;28;20874;-62
2023/01/04 03:09:30;;;;;;;7.67;7.17;;;-0.10;99.90;;;0.56;100.00;99122.91;5199417;28;20199;-58
2023/01/04 03:15:08;;;;;;;7.77;7.13;;;0.00;99.90;;;0.67;100.00;99114.09;5201325;28;20292;-61
2023/01/04 03:17:47;;;;;;;7.37;6.77;;;0.00;99.90;;;0.59;100.00;99104.78;5200094;28;20203;-61
2023/01/04 03:20:23;;;;;;;7.40;6.80;;;0.00;99.90;;;0.58;100.00;99103.00;5199551;28;20287;-60
2023/01/04 03:37:36;;;;;;;6.97;6.40;;;0.10;99.90;;;0.80;100.00;99083.69;5200880;28;20194;-59
2023/01/04 03:49:13;;;;;;;7.83;7.23;;;0.00;99.90;;;0.63;100.00;99052.50;5200605;28;20235;-63
2023/01/04 03:51:48;;;;;;;7.73;7.07;;;0.10;99.90;;;0.71;100.00;99050.81;5200659;28;20217;-62
2023/01/04 03:54:25;;;;;;;7.50;6.90;;;0.10;99.90;;;0.74;100.00;99043.63;5199713;28;20197;-61
2023/01/04 03:57:01;;;;;;;7.60;7.00;;;0.10;99.90;;;0.79;100.00;99051.72;5198574;28;21447;-62
2023/01/04 03:59:39;;;;;;;7.90;7.17;;;0.20;99.90;;;0.81;100.00;99053.69;5198368;28;20206;-59
2023/01/04 04:02:17;;;;;;;7.07;6.47;;;0.20;99.90;;;0.85;100.00;99058.31;5197864;28;20602;-61
2023/01/04 04:10:33;;;;;;;7.47;6.73;;;0.20;99.90;;;0.88;100.00;99058.66;5200287;28;20685;-59
2023/01/04 04:13:07;;;;;;;7.43;6.80;;;0.10;99.90;;;0.84;100.00;99059.06;5198797;28;20579;-61
2023/01/04 04:15:40;;;;;;;8.20;7.40;;;0.10;99.90;;;0.82;100.00;99067.16;5199946;28;20675;-56
2023/01/04 04:18:14;;;;;;;7.70;7.10;;;0.10;99.90;;;0.73;100.00;99069.53;5199478;28;20240;-61
2023/01/04 04:20:47;;;;;;;7.90;7.20;;;0.00;99.90;;;0.72;100.00;99060.19;5200582;28;20284;-61
2023/01/04 04:23:20;;;;;;;8.30;7.50;;;0.00;99.90;;;0.68;100.00;99060.53;5197409;28;20266;-60
2023/01/04 04:25:53;;;;;;;8.73;8.07;;;0.00;99.90;;;0.62;100.00;99054.81;5199831;28;20374;-60
2023/01/04 04:28:27;;;;;;;7.67;7.07;;;0.00;99.90;;;0.65;100.00;99052.66;5199170;28;20792;-60
2023/01/04 04:31:00;;;;;;;7.50;6.90;;;0.00;99.90;;;0.66;100.00;99050.31;5199297;28;20252;-60
2023/01/04 04:33:34;;;;;;;8.37;7.67;;;0.00;99.90;;;0.63;100.00;99054.09;5198212;28;20292;-60
2023/01/04 04:36:08;;;;;;;8.13;7.40;;;0.00;99.90;;;0.61;100.00;99050.50;5198981;28;20547;-60
2023/01/04 04:38:41;;;;;;;7.70;7.10;;;0.00;99.90;;;0.61;100.00;99041.34;5198846;28;20198;-58
2023/01/04 04:44:10;;;;;;;8.17;7.53;;;-0.10;99.90;;;0.58;100.00;99035.06;5195620;28;20317;-62
2023/01/04 04:46:44;;;;;;;8.00;7.20;;;-0.10;99.90;;;0.63;100.00;99029.84;5200030;28;20252;-61
2023/01/04 04:49:18;;;;;;;7.43;6.93;;;-0.10;99.90;;;0.56;100.00;99027.34;5197077;28;20254;-57
2023/01/04 04:51:51;;;;;;;7.23;6.67;;;-0.10;99.90;;;0.62;100.00;99032.19;5198841;28;20300;-59
2023/01/04 04:54:24;;;;;;;8.10;7.50;;;0.00;99.90;;;0.70;100.00;99030.53;5198502;28;20221;-60
2023/01/04 04:56:57;;;;;;;8.30;7.60;;;0.00;99.90;;;0.79;100.00;99035.00;5194581;28;20512;-58
2023/01/04 04:59:32;;;;;;;8.50;7.70;;;0.10;99.90;;;0.76;100.00;99039.66;5198005;28;20256;-59
2023/01/04 05:02:05;;;;;;;8.20;7.47;;;0.10;99.90;;;0.81;100.00;99041.09;5198994;28;20257;-59
2023/01/04 05:04:38;;;;;;;7.80;7.10;;;0.10;99.90;;;0.82;100.00;99042.88;5198154;28;20291;-58
2023/01/04 05:07:11;;;;;;;8.47;7.67;;;0.10;99.90;;;0.88;100.00;99043.56;5200490;28;20554;-59
2023/01/04 05:09:44;;;;;;;7.93;7.27;;;0.10;99.90;;;0.85;100.00;99034.78;5198131;28;20255;-57
2023/01/04 05:15:11;;;;;;;8.30;7.63;;;0.00;99.90;;;0.65;100.00;99047.63;5199468;28;20268;-58
2023/01/04 05:17:44;;;;;;;8.60;7.80;;;0.00;99.90;;;0.63;100.00;99033.97;5195194;28;20232;-60
2023/01/04 05:20:17;;;;;;;8.93;8.23;;;0.00;99.90;;;0.60;100.00;99033.59;5199929;28;20216;-60
2023/01/04 05:22:50;;;;;;;8.60;7.83;;;0.00;99.90;;;0.63;100.00;99018.88;5196022;28;20658;-60
2023/01/04 05:25:23;;;;;;;8.43;7.83;;;0.00;99.90;;;0.66;100.00;99027.69;5194698;28;20397;-64
2023/01/04 05:27:56;;;;;;;8.43;7.80;;;0.10;99.90;;;0.76;100.00;99017.03;5195925;28;20198;-57
2023/01/04 05:33:24;;;;;;;6.53;5.93;;;0.10;99.90;;;0.61;100.00;99022.84;5197585;28;20202;-58
2023/01/04 05:36:00;;;;;;;6.13;5.73;;;0.00;99.90;;;0.67;100.00;99018.50;5196591;28;20242;-56
2023/01/04 05:38:33;;;;;;;7.13;6.53;;;0.10;99.90;;;0.69;100.00;99017.06;5199741;28;20195;-61
2023/01/04 05:42:23;;;;;;;7.00;6.40;;;0.20;99.90;;;0.75;100.00;99020.28;5198668;28;20218;-59
2023/01/04 05:44:00;;;;;;;7.57;6.87;;;0.10;99.90;;;0.79;100.00;99019.88;5192911;28;20234;-63
2023/01/04 05:46:34;;;;;;;7.37;6.67;;;0.20;99.90;;;0.88;100.00;99022.53;5198205;28;20228;-61
2023/01/04 05:49:07;;;;;;;11.03;8.90;;;0.20;99.90;;;0.98;100.00;99014.44;5197675;28;20225;-61
2023/01/04 05:51:40;;;;;;;7.97;7.23;;;0.30;99.90;;;1.07;100.00;99010.41;5198742;28;20350;-61
2023/01/04 05:54:13;;;;;;;9.10;8.40;;;0.30;99.90;;;1.04;100.00;99010.06;5198678;28;20204;-62
2023/01/04 05:56:53;;;;;;;8.20;7.40;;;0.30;99.90;;;0.98;100.00;99010.28;5198044;28;20658;-59
2023/01/04 05:59:26;;;;;;;8.57;7.87;;;0.30;99.90;;;1.01;100.00;99007.22;5198481;28;20653;-62
2023/01/04 06:02:00;;;;;;;8.20;7.50;;;0.30;99.90;;;1.01;100.00;99004.72;5193083;28;20318;-63
2023/01/04 06:04:34;;;;;;;8.70;8.00;;;0.30;99.90;;;1.04;100.00;99000.91;5195521;28;20198;-62
2023/01/04 06:07:07;;;;;;;8.67;7.23;;;0.40;99.90;;;1.06;100.00;99008.59;5193417;28;20199;-61
2023/01/04 06:09:40;;;;;;;7.30;6.63;;;0.40;99.90;;;1.08;100.00;99007.16;5197289;28;20219;-61
2023/01/04 06:12:14;;;;;;;8.03;7.37;;;0.40;99.90;;;1.11;100.00;99012.53;5197934;28;20237;-60
2023/01/04 06:14:47;;;;;;;9.50;8.50;;;0.40;99.90;;;1.15;100.00;99019.72;5197926;28;20244;-62
2023/01/04 06:17:21;;;;;;;8.40;7.70;;;0.50;99.90;;;1.21;100.00;99010.34;5196122;28;20845;-62
2023/01/04 06:19:54;;;;;;;7.90;7.20;;;0.50;99.90;;;1.16;100.00;99016.47;5198722;28;20730;-62
2023/01/04 06:22:28;;;;;;;9.30;8.40;;;0.40;99.90;;;1.13;100.00;99021.16;5196988;28;20235;-62
2023/01/04 06:25:01;;;;;;;8.00;7.40;;;0.40;99.90;;;1.06;100.00;98994.44;5201401;28;20963;-62
2023/01/04 06:27:34;;;;;;;7.90;7.30;;;0.40;99.90;;;1.12;100.00;98996.72;5201240;28;20533;-62
2023/01/04 06:30:09;;;;;;;7.63;6.93;;;0.50;99.90;;;1.19;100.00;98999.19;5203351;28;20224;-60
2023/01/04 06:32:43;;;;;;;9.17;8.33;;;0.60;99.90;;;1.30;100.00;98998.75;5201597;28;20224;-61
2023/01/04 06:35:16;;;;;;;9.13;8.53;;;0.70;99.90;;;1.38;100.00;98996.22;5201443;28;20229;-58
2023/01/04 06:37:49;;;;;;;9.77;9.07;;;0.80;99.90;;;1.46;100.00;99002.97;5202433;28;20675;-59
2023/01/04 06:40:23;;;;;;;10.23;9.23;;;0.90;99.90;;;1.56;100.00;98996.59;5202595;28;20704;-58
2023/01/04 06:42:56;;;;;;;9.47;8.63;;;0.90;99.90;;;1.59;100.00;99001.09;5202774;28;20879;-61
2023/01/04 06:45:29;;;;;;;9.33;8.57;;;1.00;99.90;;;1.72;100.00;98991.63;5201310;28;20250;-61
2023/01/04 06:48:04;;;;;;;10.03;9.20;;;1.00;99.90;;;1.80;100.00;98995.88;5201802;28;20337;-62
2023/01/04 06:50:41;;;;;;;9.13;8.27;;;1.00;99.90;;;1.68;100.00;98992.00;5198594;28;20243;-61
2023/01/04 06:53:14;;;;;;;9.80;9.00;;;1.00;99.90;;;1.67;100.00;98980.16;5200922;28;20615;-60
2023/01/04 06:55:47;;;;;;;8.73;8.03;;;1.00;99.90;;;1.69;100.00;98973.66;5198317;28;21166;-61
2023/01/04 06:58:20;;;;;;;9.53;8.53;;;1.00;99.90;;;1.67;100.00;98982.66;5198091;28;20200;-61
2023/01/04 07:00:54;;;;;;;8.60;8.00;;;1.10;99.90;;;1.73;100.00;98987.47;5199647;28;20758;-61
2023/01/04 07:03:29;;;;;;;9.30;8.60;;;1.10;99.90;;;1.76;100.00;98982.78;5200465;28;20270;-61
2023/01/04 07:06:05;;;;;;;8.90;8.17;;;1.10;99.90;;;1.84;100.00;98979.47;5202774;28;20204;-61
2023/01/04 07:08:39;;;;;;;8.40;7.80;;;1.20;99.90;;;1.90;100.00;98984.28;5199924;28;20197;-63
2023/01/04 07:11:12;;;;;;;8.47;7.87;;;1.20;99.90;;;1.93;100.00;98979.56;5196222;28;20255;-62
2023/01/04 07:13:45;;;;;;;9.17;8.37;;;1.20;99.90;;;1.96;100.00;98969.81;5202139;28;20677;-62
2023/01/04 07:16:18;;;;;;;9.73;8.93;;;1.20;99.90;;;2.00;100.00;98979.47;5197502;28;20202;-62
2023/01/04 07:18:53;;;;;;;9.43;8.63;;;1.20;99.90;;;1.97;100.00;98990.13;5201071;28;20223;-64
2023/01/04 07:21:26;;;;;;;9.23;8.53;;;1.30;99.90;;;1.99;100.00;98987.78;5201547;28;20271;-61
2023/01/04 07:23:59;;;;;;;8.83;8.13;;;1.30;99.90;;;1.98;100.00;98991.03;5197619;28;20232;-62
2023/01/04 07:26:33;;;;;;;8.97;8.17;;;1.30;99.90;;;2.01;100.00;98973.72;5202481;28;20259;-62
2023/01/04 07:29:15;;;;;;;8.97;8.20;;;1.40;99.90;;;2.01;100.00;98994.78;5199719;28;20204;-61
2023/01/04 07:31:52;;;;;;;8.60;7.87;;;1.40;99.90;;;2.12;100.00;98978.31;5200076;28;20777;-63
2023/01/04 07:34:27;;;;;;;9.30;8.50;;;1.50;99.90;;;2.22;100.00;98988.63;5197636;28;20279;-63
2023/01/04 07:37:00;;;;;;;8.57;7.87;;;1.60;99.90;;;2.26;100.00;98997.41;5201124;28;20220;-62
2023/01/04 07:39:33;;;;;;;9.80;8.90;;;1.60;99.90;;;2.32;100.00;98988.00;5198659;28;20229;-64
2023/01/04 07:42:06;;;;;;;10.10;9.23;;;1.70;99.90;;;2.39;100.00;98994.59;5200125;28;20253;-62
2023/01/04 07:44:39;;;;;;;8.93;8.27;;;1.80;99.90;;;2.39;100.00;98990.44;5200876;28;20226;-62
2023/01/04 07:47:12;;;;;;;8.07;7.47;;;1.80;99.90;;;2.45;100.00;98991.06;5199150;28;20846;-61
2023/01/04 07:49:48;;;;;;;7.73;7.23;;;1.70;99.90;;;2.48;100.00;98990.50;5201369;28;20317;-62
2023/01/04 07:52:21;;;;;;;7.93;5.93;;;1.70;99.90;;;2.46;100.00;98991.97;5194857;28;20712;-62
2023/01/04 07:54:55;;;;;;;6.47;5.97;;;1.70;99.90;;;2.41;100.00;98986.44;5200801;28;20880;-62
2023/01/04 07:57:28;;;;;;;6.77;6.17;;;1.60;99.90;;;2.38;100.00;98987.75;5198769;28;20609;-61
2023/01/04 08:00:01;;;;;;;6.20;5.43;;;1.60;99.90;;;2.33;100.00;98979.69;5200286;28;20236;-62
2023/01/04 08:02:34;;;;;;;6.60;6.10;;;1.60;99.90;;;2.24;100.00;98977.09;5198870;28;20233;-62
2023/01/04 08:05:09;;;;;;;13.60;10.03;;;1.60;99.90;;;2.15;100.00;98968.53;5200181;28;20205;-62
2023/01/04 08:07:42;;;;;;;10.70;9.67;;;1.50;99.90;;;2.20;100.00;98967.41;5201123;28;20237;-61
2023/01/04 08:10:15;;;;;;;15.47;13.13;;;1.60;99.90;;;2.28;100.00;98964.78;5199206;28;20249;-63
2023/01/04 08:12:48;;;;;;;16.63;14.93;;;1.60;99.90;;;2.24;100.00;98968.63;5195833;28;20239;-62
2023/01/04 08:15:22;;;;;;;16.13;14.53;;;1.70;99.90;;;2.29;100.00;98969.09;5195172;28;20206;-62
2023/01/04 08:17:56;;;;;;;12.73;11.43;;;1.70;99.90;;;2.32;100.00;98971.94;5192722;28;21022;-62
2023/01/04 08:20:31;;;;;;;10.70;9.70;;;1.70;99.90;;;2.34;100.00;98962.91;5196239;28;20271;-61
2023/01/04 08:23:05;;;;;;;9.60;8.63;;;1.80;99.90;;;2.44;100.00;98963.19;5194162;28;20745;-62
2023/01/04 08:25:38;;;;;;;13.73;12.33;;;1.90;99.90;;;2.54;100.00;98955.84;5191413;28;20201;-61
2023/01/04 08:28:11;;;;;;;14.63;13.13;;;2.00;99.90;;;2.55;100.00;98957.63;5198616;28;20362;-61
2023/01/04 08:30:44;;;;;;;13.23;11.93;;;2.00;99.90;;;2.57;100.00;98966.25;5192538;28;20388;-60
2023/01/04 08:33:17;;;;;;;12.20;11.00;;;2.00;99.90;;;2.62;100.00;98954.13;5195651;28;20236;-62
2023/01/04 08:35:52;;;;;;;12.07;10.87;;;2.00;99.90;;;2.61;100.00;98957.41;5197633;28;21928;-62
2023/01/04 08:38:25;;;;;;;12.30;11.10;;;2.00;99.90;;;2.64;100.00;98945.97;5197166;28;20551;-60
2023/01/04 08:41:19;;;;;;;13.30;12.03;;;2.00;99.90;;;2.65;100.00;98939.31;5196153;28;20217;-62
2023/01/04 08:44:12;;;;;;;13.47;12.07;;;2.10;99.90;;;2.73;100.00;98945.16;5198896;28;20198;-63
2023/01/04 08:46:45;;;;;;;12.50;11.20;;;2.20;99.90;;;2.73;100.00;98932.53;5196607;28;20325;-61
2023/01/04 08:49:19;;;;;;;11.57;9.83;;;2.20;99.90;;;2.76;100.00;98930.34;5196341;28;20205;-63
2023/01/04 08:51:54;;;;;;;25.20;14.13;;;2.30;99.90;;;2.89;100.00;98933.38;5195281;28;20229;-63
2023/01/04 08:54:27;;;;;;;12.93;11.73;;;2.30;99.90;;;2.86;100.00;98931.47;5190438;28;20228;-63
2023/01/04 08:57:00;;;;;;;15.20;11.00;;;2.30;99.90;;;2.90;100.00;98931.03;5195840;28;20259;-61
2023/01/04 08:59:33;;;;;;;13.07;11.77;;;2.40;99.90;;;3.03;100.00;98920.56;5196743;28;20282;-63
2023/01/04 09:02:19;;;;;;;16.20;14.73;;;2.50;99.90;;;3.11;100.00;98919.72;5198388;28;20217;-62
2023/01/04 09:04:58;;;;;;;17.47;15.87;;;2.60;99.90;;;3.16;100.00;98918.56;5195314;28;20198;-62
2023/01/04 09:07:33;;;;;;;15.13;13.83;;;2.60;99.90;;;3.22;100.00;98922.47;5195697;28;20298;-63
2023/01/04 09:10:08;;;;;;;17.77;15.90;;;2.50;99.90;;;3.14;100.00;98909.91;5194226;28;20301;-62
2023/01/04 09:12:41;;;;;;;15.40;13.93;;;2.50;99.90;;;3.12;100.00;98901.31;5193923;28;20237;-62
2023/01/04 09:15:15;;;;;;;11.73;10.83;;;2.60;99.90;;;3.09;100.00;98880.81;5197578;28;20295;-62
2023/01/04 09:17:49;;;;;;;13.23;12.00;;;2.60;99.90;;;3.22;100.00;98889.63;5195021;28;20207;-63
2023/01/04 09:20:42;;;;;;;12.17;11.07;;;2.70;99.90;;;3.26;100.00;98894.22;5192459;28;20198;-63
2023/01/04 09:23:17;;;;;;;11.73;10.73;;;2.80;99.90;;;3.41;100.00;98888.22;5196985;28;20211;-62
2023/01/04 09:25:50;;;;;;;11.87;10.40;;;2.90;99.90;;;3.62;100.00;98897.06;5195810;28;20209;-63
2023/01/04 09:28:23;;;;;;;9.60;8.17;;;3.10;99.90;;;3.79;100.00;98901.28;5195425;28;20304;-63
2023/01/04 09:30:56;;;;;;;20.03;18.13;;;3.40;99.90;;;4.22;100.00;98895.41;5197419;28;20338;-62
2023/01/04 09:33:30;;;;;;;20.87;17.40;;;3.60;99.90;;;4.39;100.00;98882.78;5196603;28;20204;-64
2023/01/04 09:36:23;;;;;;;23.33;18.60;;;3.70;99.90;;;4.23;100.00;98887.06;5197881;28;20223;-66
2023/01/04 09:38:58;;;;;;;24.40;18.80;;;3.60;99.90;;;4.06;100.00;98888.84;5196189;28;20203;-65
2023/01/04 09:41:46;;;;;;;17.93;15.93;;;3.50;99.90;;;3.99;100.00;98888.97;5194617;28;20220;-64
2023/01/04 09:44:34;;;;;;;20.87;18.00;;;3.50;99.90;;;4.15;100.00;98893.00;5197458;28;20297;-66
2023/01/04 09:47:37;;;;;;;18.63;16.73;;;3.60;99.90;;;4.20;100.00;98882.59;5195874;28;20198;-66
2023/01/04 09:50:16;;;;;;;17.97;16.13;;;3.70;99.90;;;4.27;100.00;98874.00;5195425;28;20232;-64
2023/01/04 09:53:03;;;;;;;18.47;16.43;;;3.80;99.90;;;4.34;100.00;98883.06;5195460;28;20272;-66
2023/01/04 09:55:44;;;;;;;18.03;15.70;;;3.80;99.90;;;4.37;100.00;98876.66;5200349;28;20235;-66
2023/01/04 09:58:29;;;;;;;19.13;16.63;;;3.80;99.90;;;4.38;100.00;98873.41;5199429;28;20224;-65
2023/01/04 10:01:07;;;;;;;21.37;17.43;;;3.80;99.90;;;4.38;100.00;98865.81;5202008;28;20254;-64
2023/01/04 10:03:46;;;;;;;18.23;15.80;;;3.80;99.90;;;4.41;100.00;98861.03;5203510;28;20229;-65
2023/01/04 10:06:19;;;;;;;22.17;18.13;;;3.90;99.90;;;4.49;100.00;98864.28;5196409;28;20625;-65
2023/01/04 10:09:02;;;;;;;41.03;28.90;;;4.00;99.90;;;4.47;100.00;98858.22;5200958;28;20293;-64
2023/01/04 10:11:58;;;;;;;96.60;60.03;;;4.00;99.90;;;4.59;100.00;98853.44;5198601;28;20333;-65
2023/01/04 10:14:58;;;;;;;46.03;32.70;;;4.10;99.90;;;4.60;100.00;98855.22;5200558;28;20324;-65
2023/01/04 10:18:04;;;;;;;44.07;33.37;;;4.10;99.90;;;4.69;100.00;98844.34;5195886;28;20633;-66
2023/01/04 10:21:23;;;;;;;19.40;17.23;;;4.20;99.90;;;4.88;100.00;98844.44;5198283;28;20221;-65
2023/01/04 10:24:28;;;;;;;16.07;14.07;;;4.30;99.90;;;4.87;100.00;98841.78;5197615;28;20701;-65
2023/01/04 10:27:08;;;;;;;14.83;13.27;;;4.30;99.90;;;4.86;100.00;98830.72;5198737;28;20300;-67
2023/01/04 10:29:56;;;;;;;15.73;14.13;;;4.40;99.90;;;4.91;100.00;98837.13;5198017;28;20252;-64
2023/01/04 10:32:38;;;;;;;19.17;17.27;;;4.40;99.90;;;5.09;100.00;98824.41;5198948;28;20229;-64
2023/01/04 10:35:19;;;;;;;23.60;21.30;;;4.50;99.90;;;5.11;100.00;98815.31;5199133;28;20626;-66
2023/01/04 10:37:58;;;;;;;20.17;18.17;;;4.60;99.90;;;5.22;100.00;98818.84;5196740;28;20225;-64
2023/01/04 10:40:35;;;;;;;17.80;16.00;;;4.70;99.90;;;5.30;100.00;98811.19;5196388;28;20605;-65
2023/01/04 10:43:21;;;;;;;16.93;15.13;;;4.80;99.90;;;5.28;100.00;98816.88;5198466;28;20605;-65
2023/01/04 10:46:00;;;;;;;18.37;15.60;;;4.80;99.90;;;5.34;100.00;98805.66;5198365;28;20334;-64
2023/01/04 10:48:41;;;;;;;16.23;14.67;;;4.90;99.90;;;5.48;100.00;98806.03;5199135;28;20280;-65
2023/01/04 10:51:19;;;;;;;10.07;9.07;;;5.00;99.90;;;5.67;100.00;98791.75;5201449;28;20253;-65
2023/01/04 10:53:57;;;;;;;9.73;8.83;;;5.10;99.90;;;5.85;100.00;98779.84;5201590;28;20237;-65
2023/01/04 10:56:36;;;;;;;10.83;9.93;;;5.20;99.90;;;5.78;100.00;98778.41;5197469;28;20340;-64
2023/01/04 10:59:17;;;;;;;9.77;8.83;;;5.30;99.90;;;5.83;100.00;98771.19;5198120;28;20280;-65
2023/01/04 11:01:55;;;;;;;7.97;7.17;;;5.30;99.90;;;5.89;100.00;98771.75;5247926;22;20307;-62
2023/01/04 11:04:34;;;;;;;10.60;9.70;;;5.40;99.90;;;6.00;100.00;98777.81;5239958;28;20215;-60
2023/01/04 11:07:13;;;;;;;11.17;10.07;;;5.50;99.90;;;6.05;100.00;98777.47;5239983;28;20319;-58
2023/01/04 11:09:52;;;;;;;8.57;7.93;;;5.60;99.90;;;6.11;100.00;98758.47;5241867;28;20227;-61
2023/01/04 11:12:26;;;;;;;9.60;8.70;;;5.60;99.90;;;6.20;100.00;98762.72;5238356;28;20252;-61
2023/01/04 11:15:01;;;;;;;10.33;9.43;;;5.70;99.90;;;6.29;100.00;98753.34;5247235;28;20199;-59
2023/01/04 11:17:35;;;;;;;11.60;10.43;;;5.80;99.90;;;6.36;100.00;98759.88;5243203;28;20251;-62
2023/01/04 11:20:10;;;;;;;9.33;8.50;;;5.90;99.90;;;6.46;100.00;98765.00;5241446;28;20220;-59
2023/01/04 11:22:52;;;;;;;11.80;10.73;;;5.90;99.90;;;6.65;100.00;98749.72;5243223;28;21771;-61
2023/01/04 11:25:27;;;;;;;15.10;13.80;;;6.10;99.90;;;6.76;100.00;98755.75;5241423;28;20196;-60
2023/01/04 11:28:16;;;;;;;20.37;18.00;;;6.20;99.90;;;7.01;100.00;98738.41;5244958;28;20205;-60
2023/01/04 11:30:58;;;;;;;7.97;7.27;;;6.40;99.90;;;7.21;100.00;98732.44;5244960;28;20228;-60
2023/01/04 11:33:51;;;;;;;9.30;8.50;;;6.60;99.90;;;7.35;100.00;98725.97;5245863;28;20209;-60
2023/01/04 11:36:38;;;;;;;7.87;7.17;;;6.60;99.90;;;7.41;100.00;98723.91;5235665;28;20212;-64
2023/01/04 11:39:20;;;;;;;5.43;4.93;;;6.80;99.90;;;7.54;100.00;98721.66;5235111;28;20883;-59
2023/01/04 11:41:59;;;;;;;6.37;5.60;;;7.00;99.90;;;7.66;100.00;98703.94;5239960;28;20291;-64
2023/01/04 11:44:36;;;;;;;3.73;3.43;;;7.10;99.90;;;7.96;100.00;98700.47;5241331;28;20875;-59
2023/01/04 11:47:19;;;;;;;4.40;4.10;;;7.30;99.90;;;8.03;100.00;98704.41;5239384;28;20314;-58
2023/01/04 11:49:52;;;;;;;4.80;3.17;;;7.50;99.90;;;8.24;100.00;98697.56;5241447;28;20296;-61
2023/01/04 11:52:31;;;;;;;3.40;3.10;;;7.70;99.90;;;8.48;96.80;98699.56;5238541;28;20236;-60
2023/01/04 11:55:20;;;;;;;4.20;3.90;;;8.00;99.90;;;8.41;97.66;98704.03;5240825;28;20286;-59
2023/01/04 11:58:07;;;;;;;2.83;2.63;;;8.00;99.90;;;8.44;97.91;98701.72;5236968;28;20205;-64